sensor_id;sensor_type;location;lat;lon;timestamp;temperature;humidity
7658;DHT22;8462;53.156;8.220;2023-04-25T00:00:29;9.60;99.90
7658;DHT22;8462;53.156;8.220;2023-04-25T00:02:56;9.60;99.90
7658;DHT22;8462;53.156;8.220;2023-04-25T00:05:26;9.60;99.90
7658;DHT22;8462;53.156;8.220;2023-04-25T00:07:53;9.50;99.90
7658;DHT22;8462;53.156;8.220;2023-04-25T00:10:20;9.50;99.90
7658;DHT22;8462;53.156;8.220;2023-04-25T00:12:47;9.50;99.50
7658;DHT22;8462;53.156;8.220;2023-04-25T00:15:15;9.50;99.50
7658;DHT22;8462;53.156;8.220;2023-04-25T00:17:42;9.40;98.80
7658;DHT22;8462;53.156;8.220;2023-04-25T00:20:10;9.40;98.30
7658;DHT22;8462;53.156;8.220;2023-04-25T00:22:38;9.40;97.70
7658;DHT22;8462;53.156;8.220;2023-04-25T00:25:06;9.40;97.80
7658;DHT22;8462;53.156;8.220;2023-04-25T00:27:33;9.40;97.70
7658;DHT22;8462;53.156;8.220;2023-04-25T00:30:00;9.40;97.40
7658;DHT22;8462;53.156;8.220;2023-04-25T00:32:27;9.40;97.70
7658;DHT22;8462;53.156;8.220;2023-04-25T00:34:54;9.40;97.40
7658;DHT22;8462;53.156;8.220;2023-04-25T00:37:21;9.40;97.50
7658;DHT22;8462;53.156;8.220;2023-04-25T00:39:50;9.40;96.80
7658;DHT22;8462;53.156;8.220;2023-04-25T00:42:19;9.40;95.80
7658;DHT22;8462;53.156;8.220;2023-04-25T00:44:47;9.30;95.30
7658;DHT22;8462;53.156;8.220;2023-04-25T00:47:15;9.30;96.00
7658;DHT22;8462;53.156;8.220;2023-04-25T00:49:42;9.40;95.50
7658;DHT22;8462;53.156;8.220;2023-04-25T00:52:09;9.30;95.10
7658;DHT22;8462;53.156;8.220;2023-04-25T00:54:36;9.30;94.70
7658;DHT22;8462;53.156;8.220;2023-04-25T00:57:05;9.30;94.10
7658;DHT22;8462;53.156;8.220;2023-04-25T00:59:33;9.30;94.70
7658;DHT22;8462;53.156;8.220;2023-04-25T01:02:00;9.20;94.10
7658;DHT22;8462;53.156;8.220;2023-04-25T01:04:27;9.20;93.60
7658;DHT22;8462;53.156;8.220;2023-04-25T01:06:55;9.20;93.90
7658;DHT22;8462;53.156;8.220;2023-04-25T01:09:22;9.20;93.70
7658;DHT22;8462;53.156;8.220;2023-04-25T01:11:50;9.20;94.00
7658;DHT22;8462;53.156;8.220;2023-04-25T01:14:18;9.20;93.80
7658;DHT22;8462;53.156;8.220;2023-04-25T01:16:46;9.20;93.70
7658;DHT22;8462;53.156;8.220;2023-04-25T01:19:16;9.20;93.90
7658;DHT22;8462;53.156;8.220;2023-04-25T01:21:47;9.20;93.80
7658;DHT22;8462;53.156;8.220;2023-04-25T01:24:14;9.30;94.30
7658;DHT22;8462;53.156;8.220;2023-04-25T01:26:43;9.30;94.00
7658;DHT22;8462;53.156;8.220;2023-04-25T01:29:15;9.30;94.10
7658;DHT22;8462;53.156;8.220;2023-04-25T01:31:43;9.40;94.00
7658;DHT22;8462;53.156;8.220;2023-04-25T01:34:11;9.40;93.80
7658;DHT22;8462;53.156;8.220;2023-04-25T01:36:38;9.40;93.80
7658;DHT22;8462;53.156;8.220;2023-04-25T01:39:07;9.40;93.50
7658;DHT22;8462;53.156;8.220;2023-04-25T01:41:35;9.30;93.40
7658;DHT22;8462;53.156;8.220;2023-04-25T01:44:03;9.30;93.10
7658;DHT22;8462;53.156;8.220;2023-04-25T01:46:30;9.30;93.70
7658;DHT22;8462;53.156;8.220;2023-04-25T01:48:58;9.30;93.30
7658;DHT22;8462;53.156;8.220;2023-04-25T01:51:25;9.30;93.60
7658;DHT22;8462;53.156;8.220;2023-04-25T01:53:52;9.20;93.80
7658;DHT22;8462;53.156;8.220;2023-04-25T01:56:21;9.20;93.60
7658;DHT22;8462;53.156;8.220;2023-04-25T01:58:48;9.20;93.50
7658;DHT22;8462;53.156;8.220;2023-04-25T02:01:34;9.20;93.80
7658;DHT22;8462;53.156;8.220;2023-04-25T02:04:15;9.20;94.00
7658;DHT22;8462;53.156;8.220;2023-04-25T02:06:43;9.20;93.90
7658;DHT22;8462;53.156;8.220;2023-04-25T02:09:10;9.20;94.00
7658;DHT22;8462;53.156;8.220;2023-04-25T02:11:44;9.20;93.80
7658;DHT22;8462;53.156;8.220;2023-04-25T02:14:34;9.20;93.90
7658;DHT22;8462;53.156;8.220;2023-04-25T02:17:18;9.10;94.00
7658;DHT22;8462;53.156;8.220;2023-04-25T02:19:45;9.10;93.50
7658;DHT22;8462;53.156;8.220;2023-04-25T02:22:12;9.10;93.70
7658;DHT22;8462;53.156;8.220;2023-04-25T02:24:39;9.10;94.00
7658;DHT22;8462;53.156;8.220;2023-04-25T02:27:07;9.10;93.50
7658;DHT22;8462;53.156;8.220;2023-04-25T02:29:35;9.10;93.40
7658;DHT22;8462;53.156;8.220;2023-04-25T02:32:02;9.10;93.90
7658;DHT22;8462;53.156;8.220;2023-04-25T02:34:29;9.10;93.40
7658;DHT22;8462;53.156;8.220;2023-04-25T02:36:56;9.10;93.30
7658;DHT22;8462;53.156;8.220;2023-04-25T02:39:22;9.20;93.20
7658;DHT22;8462;53.156;8.220;2023-04-25T02:41:51;9.20;92.90
7658;DHT22;8462;53.156;8.220;2023-04-25T02:44:20;9.20;93.00
7658;DHT22;8462;53.156;8.220;2023-04-25T02:46:47;9.10;92.80
7658;DHT22;8462;53.156;8.220;2023-04-25T02:49:13;9.10;92.50
7658;DHT22;8462;53.156;8.220;2023-04-25T02:51:40;9.10;92.00
7658;DHT22;8462;53.156;8.220;2023-04-25T02:54:09;9.10;92.50
7658;DHT22;8462;53.156;8.220;2023-04-25T02:56:40;9.10;91.70
7658;DHT22;8462;53.156;8.220;2023-04-25T02:59:12;9.10;91.60
7658;DHT22;8462;53.156;8.220;2023-04-25T03:01:40;9.10;91.80
7658;DHT22;8462;53.156;8.220;2023-04-25T03:04:07;9.10;91.40
7658;DHT22;8462;53.156;8.220;2023-04-25T03:06:34;9.00;91.10
7658;DHT22;8462;53.156;8.220;2023-04-25T03:09:01;9.00;91.00
7658;DHT22;8462;53.156;8.220;2023-04-25T03:11:29;9.00;91.00
7658;DHT22;8462;53.156;8.220;2023-04-25T03:13:56;9.00;91.10
7658;DHT22;8462;53.156;8.220;2023-04-25T03:16:23;9.00;91.10
7658;DHT22;8462;53.156;8.220;2023-04-25T03:18:52;9.00;91.10
7658;DHT22;8462;53.156;8.220;2023-04-25T03:21:19;9.00;91.00
7658;DHT22;8462;53.156;8.220;2023-04-25T03:23:45;8.90;90.50
7658;DHT22;8462;53.156;8.220;2023-04-25T03:26:12;8.90;90.70
7658;DHT22;8462;53.156;8.220;2023-04-25T03:28:39;8.90;90.50
7658;DHT22;8462;53.156;8.220;2023-04-25T03:31:06;8.90;90.40
7658;DHT22;8462;53.156;8.220;2023-04-25T03:33:33;8.90;90.40
7658;DHT22;8462;53.156;8.220;2023-04-25T03:36:02;8.90;90.30
7658;DHT22;8462;53.156;8.220;2023-04-25T03:38:29;8.90;89.90
7658;DHT22;8462;53.156;8.220;2023-04-25T03:40:57;8.80;89.90
7658;DHT22;8462;53.156;8.220;2023-04-25T03:43:33;8.80;90.00
7658;DHT22;8462;53.156;8.220;2023-04-25T03:46:05;8.80;90.10
7658;DHT22;8462;53.156;8.220;2023-04-25T03:48:31;8.80;90.20
7658;DHT22;8462;53.156;8.220;2023-04-25T03:50:58;8.80;90.50
7658;DHT22;8462;53.156;8.220;2023-04-25T03:53:26;8.80;90.40
7658;DHT22;8462;53.156;8.220;2023-04-25T03:56:14;8.80;90.30
7658;DHT22;8462;53.156;8.220;2023-04-25T03:58:42;8.80;90.30
7658;DHT22;8462;53.156;8.220;2023-04-25T04:01:09;8.70;90.30
7658;DHT22;8462;53.156;8.220;2023-04-25T04:03:38;8.70;89.40
7658;DHT22;8462;53.156;8.220;2023-04-25T04:06:06;8.60;89.50
7658;DHT22;8462;53.156;8.220;2023-04-25T04:08:41;8.60;89.20
7658;DHT22;8462;53.156;8.220;2023-04-25T04:11:09;8.60;88.20
7658;DHT22;8462;53.156;8.220;2023-04-25T04:13:36;8.60;88.90
7658;DHT22;8462;53.156;8.220;2023-04-25T04:16:05;8.60;89.10
7658;DHT22;8462;53.156;8.220;2023-04-25T04:18:32;8.60;86.80
7658;DHT22;8462;53.156;8.220;2023-04-25T04:20:59;8.60;87.50
7658;DHT22;8462;53.156;8.220;2023-04-25T04:23:29;8.60;87.30
7658;DHT22;8462;53.156;8.220;2023-04-25T04:25:59;8.60;86.80
7658;DHT22;8462;53.156;8.220;2023-04-25T04:28:29;8.60;86.10
7658;DHT22;8462;53.156;8.220;2023-04-25T04:31:15;8.60;87.10
7658;DHT22;8462;53.156;8.220;2023-04-25T04:33:43;8.60;86.80
7658;DHT22;8462;53.156;8.220;2023-04-25T04:36:10;8.60;86.40
7658;DHT22;8462;53.156;8.220;2023-04-25T04:38:37;8.60;86.80
7658;DHT22;8462;53.156;8.220;2023-04-25T04:41:05;8.70;87.50
7658;DHT22;8462;53.156;8.220;2023-04-25T04:43:45;8.70;87.80
7658;DHT22;8462;53.156;8.220;2023-04-25T04:46:28;8.70;87.70
7658;DHT22;8462;53.156;8.220;2023-04-25T04:49:16;8.80;86.50
7658;DHT22;8462;53.156;8.220;2023-04-25T04:52:00;8.70;87.00
7658;DHT22;8462;53.156;8.220;2023-04-25T04:54:36;8.70;87.20
7658;DHT22;8462;53.156;8.220;2023-04-25T04:57:14;8.70;86.90
7658;DHT22;8462;53.156;8.220;2023-04-25T05:00:14;8.70;87.20
7658;DHT22;8462;53.156;8.220;2023-04-25T05:03:06;8.70;87.70
7658;DHT22;8462;53.156;8.220;2023-04-25T05:05:42;8.70;87.80
7658;DHT22;8462;53.156;8.220;2023-04-25T05:08:27;8.70;88.30
7658;DHT22;8462;53.156;8.220;2023-04-25T05:11:13;9.10;88.90
7658;DHT22;8462;53.156;8.220;2023-04-25T05:13:59;9.50;88.00
7658;DHT22;8462;53.156;8.220;2023-04-25T05:17:02;10.10;86.80
7658;DHT22;8462;53.156;8.220;2023-04-25T05:19:50;10.90;82.30
7658;DHT22;8462;53.156;8.220;2023-04-25T05:22:43;11.70;82.30
7658;DHT22;8462;53.156;8.220;2023-04-25T05:25:33;12.40;77.20
7658;DHT22;8462;53.156;8.220;2023-04-25T05:28:20;13.20;75.70
7658;DHT22;8462;53.156;8.220;2023-04-25T05:31:00;13.80;72.10
7658;DHT22;8462;53.156;8.220;2023-04-25T05:33:41;14.40;69.50
7658;DHT22;8462;53.156;8.220;2023-04-25T05:36:08;14.80;68.90
7658;DHT22;8462;53.156;8.220;2023-04-25T05:38:35;15.20;66.60
7658;DHT22;8462;53.156;8.220;2023-04-25T05:41:34;15.80;65.10
7658;DHT22;8462;53.156;8.220;2023-04-25T05:44:23;16.10;60.70
7658;DHT22;8462;53.156;8.220;2023-04-25T05:47:10;16.40;59.70
7658;DHT22;8462;53.156;8.220;2023-04-25T05:49:56;16.80;59.10
7658;DHT22;8462;53.156;8.220;2023-04-25T05:52:33;17.20;55.40
7658;DHT22;8462;53.156;8.220;2023-04-25T05:55:23;17.00;54.90
7658;DHT22;8462;53.156;8.220;2023-04-25T05:57:50;16.70;56.30
7658;DHT22;8462;53.156;8.220;2023-04-25T06:00:17;16.00;57.20
7658;DHT22;8462;53.156;8.220;2023-04-25T06:02:49;15.20;57.50
7658;DHT22;8462;53.156;8.220;2023-04-25T06:05:17;14.50;59.80
7658;DHT22;8462;53.156;8.220;2023-04-25T06:07:47;13.90;62.00
7658;DHT22;8462;53.156;8.220;2023-04-25T06:10:14;13.40;62.50
7658;DHT22;8462;53.156;8.220;2023-04-25T06:12:42;12.80;65.00
7658;DHT22;8462;53.156;8.220;2023-04-25T06:15:09;13.00;68.80
7658;DHT22;8462;53.156;8.220;2023-04-25T06:17:36;13.70;67.90
7658;DHT22;8462;53.156;8.220;2023-04-25T06:20:06;14.50;65.30
7658;DHT22;8462;53.156;8.220;2023-04-25T06:22:33;15.40;63.60
7658;DHT22;8462;53.156;8.220;2023-04-25T06:25:00;16.10;59.20
7658;DHT22;8462;53.156;8.220;2023-04-25T06:27:29;16.70;56.40
7658;DHT22;8462;53.156;8.220;2023-04-25T06:29:56;17.00;55.20
7658;DHT22;8462;53.156;8.220;2023-04-25T06:32:24;17.10;54.00
7658;DHT22;8462;53.156;8.220;2023-04-25T06:34:53;17.30;55.20
7658;DHT22;8462;53.156;8.220;2023-04-25T06:37:22;17.60;52.50
7658;DHT22;8462;53.156;8.220;2023-04-25T06:39:50;17.70;54.00
7658;DHT22;8462;53.156;8.220;2023-04-25T06:42:17;18.20;51.90
7658;DHT22;8462;53.156;8.220;2023-04-25T06:44:52;18.40;51.60
7658;DHT22;8462;53.156;8.220;2023-04-25T06:47:19;18.70;51.00
7658;DHT22;8462;53.156;8.220;2023-04-25T06:49:48;18.80;49.30
7658;DHT22;8462;53.156;8.220;2023-04-25T06:52:14;18.80;48.10
7658;DHT22;8462;53.156;8.220;2023-04-25T06:54:45;18.80;48.60
7658;DHT22;8462;53.156;8.220;2023-04-25T06:57:21;18.90;48.10
7658;DHT22;8462;53.156;8.220;2023-04-25T06:59:49;18.90;49.50
7658;DHT22;8462;53.156;8.220;2023-04-25T07:02:16;19.00;47.80
7658;DHT22;8462;53.156;8.220;2023-04-25T07:04:43;19.30;47.30
7658;DHT22;8462;53.156;8.220;2023-04-25T07:07:11;19.40;46.70
7658;DHT22;8462;53.156;8.220;2023-04-25T07:09:47;19.80;46.10
7658;DHT22;8462;53.156;8.220;2023-04-25T07:12:15;19.90;45.70
7658;DHT22;8462;53.156;8.220;2023-04-25T07:14:43;20.00;45.80
7658;DHT22;8462;53.156;8.220;2023-04-25T07:17:10;19.90;43.80
7658;DHT22;8462;53.156;8.220;2023-04-25T07:19:37;19.40;43.20
7658;DHT22;8462;53.156;8.220;2023-04-25T07:22:06;19.20;44.30
7658;DHT22;8462;53.156;8.220;2023-04-25T07:24:35;19.00;44.40
7658;DHT22;8462;53.156;8.220;2023-04-25T07:27:04;18.50;44.80
7658;DHT22;8462;53.156;8.220;2023-04-25T07:30:02;17.80;46.40
7658;DHT22;8462;53.156;8.220;2023-04-25T07:32:29;16.80;46.60
7658;DHT22;8462;53.156;8.220;2023-04-25T07:34:56;16.20;48.70
7658;DHT22;8462;53.156;8.220;2023-04-25T07:37:24;15.70;50.00
7658;DHT22;8462;53.156;8.220;2023-04-25T07:40:03;15.00;50.40
7658;DHT22;8462;53.156;8.220;2023-04-25T07:42:32;14.30;52.10
7658;DHT22;8462;53.156;8.220;2023-04-25T07:45:00;13.70;53.80
7658;DHT22;8462;53.156;8.220;2023-04-25T07:47:30;13.20;57.50
7658;DHT22;8462;53.156;8.220;2023-04-25T07:49:58;12.80;60.20
7658;DHT22;8462;53.156;8.220;2023-04-25T07:52:26;12.30;63.30
7658;DHT22;8462;53.156;8.220;2023-04-25T07:55:00;12.10;65.60
7658;DHT22;8462;53.156;8.220;2023-04-25T07:57:40;11.70;67.30
7658;DHT22;8462;53.156;8.220;2023-04-25T08:00:10;11.40;68.70
7658;DHT22;8462;53.156;8.220;2023-04-25T08:02:45;11.00;69.40
7658;DHT22;8462;53.156;8.220;2023-04-25T08:05:15;10.90;71.10
7658;DHT22;8462;53.156;8.220;2023-04-25T08:07:46;11.00;71.30
7658;DHT22;8462;53.156;8.220;2023-04-25T08:10:13;11.10;71.20
7658;DHT22;8462;53.156;8.220;2023-04-25T08:12:44;11.20;69.90
7658;DHT22;8462;53.156;8.220;2023-04-25T08:15:12;11.20;70.40
7658;DHT22;8462;53.156;8.220;2023-04-25T08:17:40;11.40;70.30
7658;DHT22;8462;53.156;8.220;2023-04-25T08:20:10;11.50;68.80
7658;DHT22;8462;53.156;8.220;2023-04-25T08:22:38;11.60;68.60
7658;DHT22;8462;53.156;8.220;2023-04-25T08:25:22;11.90;69.50
7658;DHT22;8462;53.156;8.220;2023-04-25T08:27:50;12.40;66.10
7658;DHT22;8462;53.156;8.220;2023-04-25T08:30:21;12.70;65.00
7658;DHT22;8462;53.156;8.220;2023-04-25T08:32:48;12.90;65.10
7658;DHT22;8462;53.156;8.220;2023-04-25T08:35:44;13.20;63.90
7658;DHT22;8462;53.156;8.220;2023-04-25T08:38:12;13.40;63.00
7658;DHT22;8462;53.156;8.220;2023-04-25T08:40:41;13.40;60.70
7658;DHT22;8462;53.156;8.220;2023-04-25T08:43:14;13.20;61.90
7658;DHT22;8462;53.156;8.220;2023-04-25T08:45:41;12.80;63.80
7658;DHT22;8462;53.156;8.220;2023-04-25T08:48:14;12.30;67.30
7658;DHT22;8462;53.156;8.220;2023-04-25T08:50:46;11.70;68.10
7658;DHT22;8462;53.156;8.220;2023-04-25T08:53:16;11.30;69.90
7658;DHT22;8462;53.156;8.220;2023-04-25T08:55:46;11.10;71.90
7658;DHT22;8462;53.156;8.220;2023-04-25T08:58:16;11.10;72.00
7658;DHT22;8462;53.156;8.220;2023-04-25T09:00:46;11.20;73.50
7658;DHT22;8462;53.156;8.220;2023-04-25T09:03:13;11.40;74.50
7658;DHT22;8462;53.156;8.220;2023-04-25T09:05:41;11.60;73.80
7658;DHT22;8462;53.156;8.220;2023-04-25T09:08:08;11.80;74.10
7658;DHT22;8462;53.156;8.220;2023-04-25T09:10:36;12.00;74.40
7658;DHT22;8462;53.156;8.220;2023-04-25T09:13:05;12.30;74.30
7658;DHT22;8462;53.156;8.220;2023-04-25T09:15:49;12.60;72.60
7658;DHT22;8462;53.156;8.220;2023-04-25T09:18:35;12.80;67.40
7658;DHT22;8462;53.156;8.220;2023-04-25T09:21:05;13.10;68.30
7658;DHT22;8462;53.156;8.220;2023-04-25T09:23:39;13.40;66.70
7658;DHT22;8462;53.156;8.220;2023-04-25T09:26:07;13.90;65.40
7658;DHT22;8462;53.156;8.220;2023-04-25T09:28:35;14.20;64.50
7658;DHT22;8462;53.156;8.220;2023-04-25T09:31:05;14.20;60.50
7658;DHT22;8462;53.156;8.220;2023-04-25T09:33:36;13.80;59.60
7658;DHT22;8462;53.156;8.220;2023-04-25T09:36:06;13.40;61.90
7658;DHT22;8462;53.156;8.220;2023-04-25T09:39:00;12.90;63.80
7658;DHT22;8462;53.156;8.220;2023-04-25T09:41:32;12.10;68.70
7658;DHT22;8462;53.156;8.220;2023-04-25T09:44:04;11.60;73.30
7658;DHT22;8462;53.156;8.220;2023-04-25T09:46:36;11.10;75.30
7658;DHT22;8462;53.156;8.220;2023-04-25T09:49:06;10.90;78.20
7658;DHT22;8462;53.156;8.220;2023-04-25T09:51:40;10.80;76.50
7658;DHT22;8462;53.156;8.220;2023-04-25T09:54:09;10.70;76.20
7658;DHT22;8462;53.156;8.220;2023-04-25T09:56:45;10.80;77.40
7658;DHT22;8462;53.156;8.220;2023-04-25T09:59:14;11.00;78.50
7658;DHT22;8462;53.156;8.220;2023-04-25T10:01:43;11.10;77.30
7658;DHT22;8462;53.156;8.220;2023-04-25T10:04:24;11.30;76.70
7658;DHT22;8462;53.156;8.220;2023-04-25T10:06:57;11.60;76.90
7658;DHT22;8462;53.156;8.220;2023-04-25T10:09:26;11.90;73.90
7658;DHT22;8462;53.156;8.220;2023-04-25T10:11:56;12.10;73.50
7658;DHT22;8462;53.156;8.220;2023-04-25T10:14:23;12.50;72.60
7658;DHT22;8462;53.156;8.220;2023-04-25T10:16:53;12.70;67.50
7658;DHT22;8462;53.156;8.220;2023-04-25T10:19:21;12.80;65.70
7658;DHT22;8462;53.156;8.220;2023-04-25T10:21:52;12.90;64.70
7658;DHT22;8462;53.156;8.220;2023-04-25T10:24:23;13.00;61.80
7658;DHT22;8462;53.156;8.220;2023-04-25T10:26:51;13.10;59.80
7658;DHT22;8462;53.156;8.220;2023-04-25T10:29:25;13.20;59.80
7658;DHT22;8462;53.156;8.220;2023-04-25T10:31:53;13.40;59.10
7658;DHT22;8462;53.156;8.220;2023-04-25T10:34:24;13.40;59.90
7658;DHT22;8462;53.156;8.220;2023-04-25T10:36:52;13.50;58.20
7658;DHT22;8462;53.156;8.220;2023-04-25T10:39:24;13.70;58.10
7658;DHT22;8462;53.156;8.220;2023-04-25T10:41:56;13.90;57.10
7658;DHT22;8462;53.156;8.220;2023-04-25T10:44:26;14.00;58.30
7658;DHT22;8462;53.156;8.220;2023-04-25T10:46:56;14.00;60.30
7658;DHT22;8462;53.156;8.220;2023-04-25T10:49:32;13.80;65.30
7658;DHT22;8462;53.156;8.220;2023-04-25T10:52:16;13.50;67.00
7658;DHT22;8462;53.156;8.220;2023-04-25T10:54:47;13.60;67.90
7658;DHT22;8462;53.156;8.220;2023-04-25T10:57:27;14.00;66.80
7658;DHT22;8462;53.156;8.220;2023-04-25T10:59:59;14.40;65.20
7658;DHT22;8462;53.156;8.220;2023-04-25T11:02:28;14.60;61.40
7658;DHT22;8462;53.156;8.220;2023-04-25T11:04:55;14.80;57.40
7658;DHT22;8462;53.156;8.220;2023-04-25T11:07:29;15.10;54.20
7658;DHT22;8462;53.156;8.220;2023-04-25T11:10:03;15.20;50.00
7658;DHT22;8462;53.156;8.220;2023-04-25T11:12:30;15.30;51.20
7658;DHT22;8462;53.156;8.220;2023-04-25T11:14:59;15.40;51.40
7658;DHT22;8462;53.156;8.220;2023-04-25T11:17:29;15.40;52.10
7658;DHT22;8462;53.156;8.220;2023-04-25T11:19:56;15.20;53.80
7658;DHT22;8462;53.156;8.220;2023-04-25T11:22:26;15.00;52.80
7658;DHT22;8462;53.156;8.220;2023-04-25T11:24:54;14.90;54.50
7658;DHT22;8462;53.156;8.220;2023-04-25T11:27:21;14.80;52.20
7658;DHT22;8462;53.156;8.220;2023-04-25T11:29:50;14.80;49.30
7658;DHT22;8462;53.156;8.220;2023-04-25T11:32:17;14.60;51.50
7658;DHT22;8462;53.156;8.220;2023-04-25T11:34:46;14.20;51.40
7658;DHT22;8462;53.156;8.220;2023-04-25T11:37:14;13.70;55.20
7658;DHT22;8462;53.156;8.220;2023-04-25T11:39:44;13.30;54.80
7658;DHT22;8462;53.156;8.220;2023-04-25T11:42:12;13.00;56.10
7658;DHT22;8462;53.156;8.220;2023-04-25T11:44:40;12.90;56.80
7658;DHT22;8462;53.156;8.220;2023-04-25T11:47:07;12.90;57.00
7658;DHT22;8462;53.156;8.220;2023-04-25T11:49:35;13.00;57.10
7658;DHT22;8462;53.156;8.220;2023-04-25T11:52:06;13.00;57.30
7658;DHT22;8462;53.156;8.220;2023-04-25T11:54:35;13.30;59.20
7658;DHT22;8462;53.156;8.220;2023-04-25T11:57:03;13.60;55.90
7658;DHT22;8462;53.156;8.220;2023-04-25T11:59:30;13.80;57.10
7658;DHT22;8462;53.156;8.220;2023-04-25T12:01:57;14.10;57.30
7658;DHT22;8462;53.156;8.220;2023-04-25T12:04:25;14.20;55.60
7658;DHT22;8462;53.156;8.220;2023-04-25T12:06:53;14.10;55.50
7658;DHT22;8462;53.156;8.220;2023-04-25T12:09:30;14.10;55.00
7658;DHT22;8462;53.156;8.220;2023-04-25T12:11:59;14.00;54.80
7658;DHT22;8462;53.156;8.220;2023-04-25T12:14:31;13.90;53.30
7658;DHT22;8462;53.156;8.220;2023-04-25T12:17:00;13.70;48.60
7658;DHT22;8462;53.156;8.220;2023-04-25T12:19:32;13.80;49.00
7658;DHT22;8462;53.156;8.220;2023-04-25T12:22:00;14.00;49.70
7658;DHT22;8462;53.156;8.220;2023-04-25T12:24:28;14.30;49.70
7658;DHT22;8462;53.156;8.220;2023-04-25T12:26:59;14.50;49.70
7658;DHT22;8462;53.156;8.220;2023-04-25T12:29:28;14.60;47.50
7658;DHT22;8462;53.156;8.220;2023-04-25T12:31:55;14.60;43.80
7658;DHT22;8462;53.156;8.220;2023-04-25T12:34:23;14.50;44.40
7658;DHT22;8462;53.156;8.220;2023-04-25T12:36:51;14.50;44.40
7658;DHT22;8462;53.156;8.220;2023-04-25T12:39:19;14.40;43.60
7658;DHT22;8462;53.156;8.220;2023-04-25T12:41:49;14.30;44.60
7658;DHT22;8462;53.156;8.220;2023-04-25T12:44:16;14.20;47.10
7658;DHT22;8462;53.156;8.220;2023-04-25T12:46:47;14.20;47.00
7658;DHT22;8462;53.156;8.220;2023-04-25T12:49:14;14.30;49.20
7658;DHT22;8462;53.156;8.220;2023-04-25T12:51:41;14.40;47.60
7658;DHT22;8462;53.156;8.220;2023-04-25T12:54:08;14.40;43.70
7658;DHT22;8462;53.156;8.220;2023-04-25T12:56:35;14.40;43.20
7658;DHT22;8462;53.156;8.220;2023-04-25T12:59:04;14.30;44.10
7658;DHT22;8462;53.156;8.220;2023-04-25T13:01:31;14.30;43.60
7658;DHT22;8462;53.156;8.220;2023-04-25T13:03:58;14.00;42.50
7658;DHT22;8462;53.156;8.220;2023-04-25T13:06:26;13.70;43.40
7658;DHT22;8462;53.156;8.220;2023-04-25T13:08:53;13.50;44.00
7658;DHT22;8462;53.156;8.220;2023-04-25T13:11:20;13.30;45.80
7658;DHT22;8462;53.156;8.220;2023-04-25T13:13:46;13.10;47.60
7658;DHT22;8462;53.156;8.220;2023-04-25T13:16:17;13.10;50.20
7658;DHT22;8462;53.156;8.220;2023-04-25T13:18:46;13.10;48.10
7658;DHT22;8462;53.156;8.220;2023-04-25T13:21:13;13.10;48.30
7658;DHT22;8462;53.156;8.220;2023-04-25T13:23:40;13.10;49.10
7658;DHT22;8462;53.156;8.220;2023-04-25T13:26:08;13.30;47.60
7658;DHT22;8462;53.156;8.220;2023-04-25T13:28:35;13.50;47.30
7658;DHT22;8462;53.156;8.220;2023-04-25T13:31:02;13.60;46.50
7658;DHT22;8462;53.156;8.220;2023-04-25T13:33:30;13.70;46.70
7658;DHT22;8462;53.156;8.220;2023-04-25T13:35:57;13.90;47.50
7658;DHT22;8462;53.156;8.220;2023-04-25T13:38:25;14.20;46.70
7658;DHT22;8462;53.156;8.220;2023-04-25T13:40:52;14.50;46.30
7658;DHT22;8462;53.156;8.220;2023-04-25T13:43:19;14.80;46.30
7658;DHT22;8462;53.156;8.220;2023-04-25T13:45:47;14.90;47.10
7658;DHT22;8462;53.156;8.220;2023-04-25T13:48:17;14.80;48.60
7658;DHT22;8462;53.156;8.220;2023-04-25T13:50:45;14.80;50.00
7658;DHT22;8462;53.156;8.220;2023-04-25T13:53:12;14.90;50.30
7658;DHT22;8462;53.156;8.220;2023-04-25T13:55:39;15.00;49.50
7658;DHT22;8462;53.156;8.220;2023-04-25T13:58:06;15.10;50.90
7658;DHT22;8462;53.156;8.220;2023-04-25T14:00:36;15.10;51.80
7658;DHT22;8462;53.156;8.220;2023-04-25T14:03:04;15.00;51.00
7658;DHT22;8462;53.156;8.220;2023-04-25T14:05:33;14.90;48.90
7658;DHT22;8462;53.156;8.220;2023-04-25T14:08:06;15.00;45.90
7658;DHT22;8462;53.156;8.220;2023-04-25T14:10:33;15.10;45.40
7658;DHT22;8462;53.156;8.220;2023-04-25T14:13:01;15.10;44.60
7658;DHT22;8462;53.156;8.220;2023-04-25T14:15:29;15.10;45.30
7658;DHT22;8462;53.156;8.220;2023-04-25T14:17:57;15.10;46.20
7658;DHT22;8462;53.156;8.220;2023-04-25T14:20:24;15.10;47.10
7658;DHT22;8462;53.156;8.220;2023-04-25T14:22:50;15.20;48.00
7658;DHT22;8462;53.156;8.220;2023-04-25T14:25:20;15.40;47.70
7658;DHT22;8462;53.156;8.220;2023-04-25T14:27:47;15.30;48.90
7658;DHT22;8462;53.156;8.220;2023-04-25T14:30:15;15.10;51.50
7658;DHT22;8462;53.156;8.220;2023-04-25T14:32:43;15.00;51.20
7658;DHT22;8462;53.156;8.220;2023-04-25T14:35:10;15.00;52.10
7658;DHT22;8462;53.156;8.220;2023-04-25T14:37:38;14.90;49.50
7658;DHT22;8462;53.156;8.220;2023-04-25T14:40:05;14.90;46.10
7658;DHT22;8462;53.156;8.220;2023-04-25T14:42:36;14.80;46.80
7658;DHT22;8462;53.156;8.220;2023-04-25T14:45:03;14.80;47.40
7658;DHT22;8462;53.156;8.220;2023-04-25T14:47:30;14.80;47.30
7658;DHT22;8462;53.156;8.220;2023-04-25T14:49:57;14.60;46.80
7658;DHT22;8462;53.156;8.220;2023-04-25T14:52:24;14.30;47.70
7658;DHT22;8462;53.156;8.220;2023-04-25T14:54:51;14.00;51.70
7658;DHT22;8462;53.156;8.220;2023-04-25T14:57:18;13.80;53.40
7658;DHT22;8462;53.156;8.220;2023-04-25T14:59:47;13.60;54.00
7658;DHT22;8462;53.156;8.220;2023-04-25T15:02:13;13.40;54.90
7658;DHT22;8462;53.156;8.220;2023-04-25T15:04:40;13.40;54.90
7658;DHT22;8462;53.156;8.220;2023-04-25T15:07:07;13.50;56.20
7658;DHT22;8462;53.156;8.220;2023-04-25T15:09:34;13.80;55.40
7658;DHT22;8462;53.156;8.220;2023-04-25T15:12:02;13.80;53.60
7658;DHT22;8462;53.156;8.220;2023-04-25T15:14:29;13.70;53.10
7658;DHT22;8462;53.156;8.220;2023-04-25T15:16:58;13.70;52.90
7658;DHT22;8462;53.156;8.220;2023-04-25T15:19:26;13.80;50.30
7658;DHT22;8462;53.156;8.220;2023-04-25T15:21:53;13.90;50.90
7658;DHT22;8462;53.156;8.220;2023-04-25T15:24:20;14.00;51.80
7658;DHT22;8462;53.156;8.220;2023-04-25T15:26:47;14.00;52.60
7658;DHT22;8462;53.156;8.220;2023-04-25T15:29:14;14.10;53.00
7658;DHT22;8462;53.156;8.220;2023-04-25T15:31:42;14.10;48.30
7658;DHT22;8462;53.156;8.220;2023-04-25T15:34:10;14.00;48.10
7658;DHT22;8462;53.156;8.220;2023-04-25T15:36:37;13.80;48.10
7658;DHT22;8462;53.156;8.220;2023-04-25T15:39:04;13.60;48.20
7658;DHT22;8462;53.156;8.220;2023-04-25T15:41:31;13.50;49.20
7658;DHT22;8462;53.156;8.220;2023-04-25T15:43:59;13.50;49.60
7658;DHT22;8462;53.156;8.220;2023-04-25T15:46:26;13.50;48.70
7658;DHT22;8462;53.156;8.220;2023-04-25T15:48:55;13.50;49.40
7658;DHT22;8462;53.156;8.220;2023-04-25T15:51:24;13.40;49.90
7658;DHT22;8462;53.156;8.220;2023-04-25T15:53:52;13.30;51.30
7658;DHT22;8462;53.156;8.220;2023-04-25T15:56:19;13.00;53.00
7658;DHT22;8462;53.156;8.220;2023-04-25T15:58:46;12.80;54.00
7658;DHT22;8462;53.156;8.220;2023-04-25T16:01:13;12.50;56.10
7658;DHT22;8462;53.156;8.220;2023-04-25T16:03:40;12.10;57.30
7658;DHT22;8462;53.156;8.220;2023-04-25T16:06:07;11.80;57.90
7658;DHT22;8462;53.156;8.220;2023-04-25T16:08:37;11.70;59.20
7658;DHT22;8462;53.156;8.220;2023-04-25T16:11:04;11.60;60.40
7658;DHT22;8462;53.156;8.220;2023-04-25T16:13:32;11.60;59.40
7658;DHT22;8462;53.156;8.220;2023-04-25T16:16:00;11.50;59.90
7658;DHT22;8462;53.156;8.220;2023-04-25T16:18:27;11.50;60.20
7658;DHT22;8462;53.156;8.220;2023-04-25T16:20:55;11.70;59.60
7658;DHT22;8462;53.156;8.220;2023-04-25T16:23:22;11.80;60.00
7658;DHT22;8462;53.156;8.220;2023-04-25T16:25:50;12.00;59.80